sensor_id;sensor_type;location;lat;lon;timestamp;P1;durP1;ratioP1;P2;durP2;ratioP2
9522;SDS011;63165;43.016;25.784;2023-08-30T07:52:17;23.33;;;6.80;;
9522;SDS011;63165;43.016;25.784;2023-08-30T07:54:48;19.55;;;6.70;;
9522;SDS011;63165;43.016;25.784;2023-08-30T07:57:23;17.92;;;7.07;;
9522;SDS011;63165;43.016;25.784;2023-08-30T08:10:43;15.77;;;6.40;;
9522;SDS011;63165;43.016;25.784;2023-08-30T08:13:10;19.25;;;6.05;;
9522;SDS011;63165;43.016;25.784;2023-08-30T08:15:38;15.55;;;6.43;;
9522;SDS011;63165;43.016;25.784;2023-08-30T08:18:05;16.23;;;6.40;;
9522;SDS011;63165;43.016;25.784;2023-08-30T08:20:32;17.55;;;6.43;;
9522;SDS011;63165;43.016;25.784;2023-08-30T08:23:00;16.10;;;6.65;;
9522;SDS011;63165;43.016;25.784;2023-08-30T08:25:27;13.48;;;6.65;;
9522;SDS011;63165;43.016;25.784;2023-08-30T08:27:56;21.60;;;6.78;;
9522;SDS011;63165;43.016;25.784;2023-08-30T08:30:23;16.00;;;6.53;;
9522;SDS011;63165;43.016;25.784;2023-08-30T08:32:50;17.45;;;6.60;;
9522;SDS011;63165;43.016;25.784;2023-08-30T08:35:17;17.60;;;6.95;;
9522;SDS011;63165;43.016;25.784;2023-08-30T08:37:45;17.50;;;6.68;;
9522;SDS011;63165;43.016;25.784;2023-08-30T08:40:12;16.88;;;6.75;;
9522;SDS011;63165;43.016;25.784;2023-08-30T08:42:39;16.90;;;6.65;;
9522;SDS011;63165;43.016;25.784;2023-08-30T08:45:11;16.98;;;6.75;;
9522;SDS011;63165;43.016;25.784;2023-08-30T08:47:41;15.07;;;7.20;;
9522;SDS011;63165;43.016;25.784;2023-08-30T08:50:09;21.15;;;6.53;;
9522;SDS011;63165;43.016;25.784;2023-08-30T08:52:36;18.35;;;7.20;;
9522;SDS011;63165;43.016;25.784;2023-08-30T08:55:04;13.57;;;6.97;;
9522;SDS011;63165;43.016;25.784;2023-08-30T08:57:32;19.27;;;6.90;;
9522;SDS011;63165;43.016;25.784;2023-08-30T09:00:00;14.73;;;6.88;;
9522;SDS011;63165;43.016;25.784;2023-08-30T09:02:29;16.58;;;6.65;;
9522;SDS011;63165;43.016;25.784;2023-08-30T09:04:56;20.10;;;7.53;;
9522;SDS011;63165;43.016;25.784;2023-08-30T09:07:24;20.63;;;6.82;;
9522;SDS011;63165;43.016;25.784;2023-08-30T09:09:53;18.58;;;6.82;;
9522;SDS011;63165;43.016;25.784;2023-08-30T09:12:21;14.35;;;6.38;;
9522;SDS011;63165;43.016;25.784;2023-08-30T09:14:54;18.27;;;7.00;;
9522;SDS011;63165;43.016;25.784;2023-08-30T09:17:22;16.48;;;6.68;;
9522;SDS011;63165;43.016;25.784;2023-08-30T09:19:52;17.55;;;6.47;;
9522;SDS011;63165;43.016;25.784;2023-08-30T09:22:19;16.35;;;6.45;;
9522;SDS011;63165;43.016;25.784;2023-08-30T09:24:46;83.97;;;10.80;;
9522;SDS011;63165;43.016;25.784;2023-08-30T09:27:14;15.32;;;6.63;;
9522;SDS011;63165;43.016;25.784;2023-08-30T09:29:43;19.05;;;6.63;;
9522;SDS011;63165;43.016;25.784;2023-08-30T09:32:10;17.60;;;6.70;;
9522;SDS011;63165;43.016;25.784;2023-08-30T09:34:45;16.10;;;6.13;;
9522;SDS011;63165;43.016;25.784;2023-08-30T09:37:20;13.38;;;6.75;;
9522;SDS011;63165;43.016;25.784;2023-08-30T09:39:48;17.63;;;6.68;;
9522;SDS011;63165;43.016;25.784;2023-08-30T09:42:16;19.15;;;6.55;;
9522;SDS011;63165;43.016;25.784;2023-08-30T09:44:44;15.98;;;6.20;;
9522;SDS011;63165;43.016;25.784;2023-08-30T09:47:12;24.92;;;7.20;;
9522;SDS011;63165;43.016;25.784;2023-08-30T09:49:42;15.80;;;6.30;;
9522;SDS011;63165;43.016;25.784;2023-08-30T09:52:27;18.02;;;6.50;;
9522;SDS011;63165;43.016;25.784;2023-08-30T09:54:56;19.95;;;6.88;;
9522;SDS011;63165;43.016;25.784;2023-08-30T09:57:25;17.48;;;6.68;;
9522;SDS011;63165;43.016;25.784;2023-08-30T09:59:53;18.70;;;6.75;;
9522;SDS011;63165;43.016;25.784;2023-08-30T10:02:22;16.98;;;6.35;;
9522;SDS011;63165;43.016;25.784;2023-08-30T10:04:50;14.10;;;6.18;;
9522;SDS011;63165;43.016;25.784;2023-08-30T10:07:18;13.77;;;6.47;;
9522;SDS011;63165;43.016;25.784;2023-08-30T10:09:48;16.65;;;6.85;;
9522;SDS011;63165;43.016;25.784;2023-08-30T10:12:19;17.33;;;6.82;;
9522;SDS011;63165;43.016;25.784;2023-08-30T10:14:47;14.85;;;6.40;;
9522;SDS011;63165;43.016;25.784;2023-08-30T10:17:14;14.85;;;6.20;;
9522;SDS011;63165;43.016;25.784;2023-08-30T10:19:45;17.00;;;6.90;;
9522;SDS011;63165;43.016;25.784;2023-08-30T10:22:13;22.77;;;6.50;;
9522;SDS011;63165;43.016;25.784;2023-08-30T10:24:44;20.80;;;6.85;;
9522;SDS011;63165;43.016;25.784;2023-08-30T10:27:16;21.33;;;6.93;;
9522;SDS011;63165;43.016;25.784;2023-08-30T10:29:44;17.35;;;6.18;;
9522;SDS011;63165;43.016;25.784;2023-08-30T10:32:18;15.70;;;6.18;;
9522;SDS011;63165;43.016;25.784;2023-08-30T10:34:47;15.35;;;6.20;;
9522;SDS011;63165;43.016;25.784;2023-08-30T10:37:15;14.05;;;6.60;;
9522;SDS011;63165;43.016;25.784;2023-08-30T10:39:47;15.68;;;5.93;;
9522;SDS011;63165;43.016;25.784;2023-08-30T10:42:16;15.25;;;6.25;;
9522;SDS011;63165;43.016;25.784;2023-08-30T10:44:48;12.50;;;5.97;;
9522;SDS011;63165;43.016;25.784;2023-08-30T10:47:20;12.90;;;6.32;;
9522;SDS011;63165;43.016;25.784;2023-08-30T10:49:49;15.15;;;6.18;;
9522;SDS011;63165;43.016;25.784;2023-08-30T10:52:16;14.82;;;5.97;;
9522;SDS011;63165;43.016;25.784;2023-08-30T10:54:45;16.58;;;5.75;;
9522;SDS011;63165;43.016;25.784;2023-08-30T10:57:13;14.75;;;6.38;;
9522;SDS011;63165;43.016;25.784;2023-08-30T10:59:47;19.25;;;5.97;;
9522;SDS011;63165;43.016;25.784;2023-08-30T11:02:30;17.65;;;6.22;;
9522;SDS011;63165;43.016;25.784;2023-08-30T11:04:58;12.90;;;6.85;;
9522;SDS011;63165;43.016;25.784;2023-08-30T11:07:26;13.52;;;6.35;;
9522;SDS011;63165;43.016;25.784;2023-08-30T11:09:55;20.42;;;6.47;;
9522;SDS011;63165;43.016;25.784;2023-08-30T11:12:22;13.35;;;6.13;;
9522;SDS011;63165;43.016;25.784;2023-08-30T11:14:51;15.98;;;6.07;;
9522;SDS011;63165;43.016;25.784;2023-08-30T11:17:19;18.48;;;6.00;;
9522;SDS011;63165;43.016;25.784;2023-08-30T11:19:49;12.00;;;6.03;;
9522;SDS011;63165;43.016;25.784;2023-08-30T11:22:17;14.50;;;6.35;;
9522;SDS011;63165;43.016;25.784;2023-08-30T11:24:47;15.68;;;6.43;;
9522;SDS011;63165;43.016;25.784;2023-08-30T11:27:17;20.52;;;6.22;;
9522;SDS011;63165;43.016;25.784;2023-08-30T11:29:45;15.05;;;6.40;;
9522;SDS011;63165;43.016;25.784;2023-08-30T11:32:12;24.27;;;6.65;;
9522;SDS011;63165;43.016;25.784;2023-08-30T11:34:39;15.18;;;6.40;;
9522;SDS011;63165;43.016;25.784;2023-08-30T11:37:07;20.63;;;6.53;;
9522;SDS011;63165;43.016;25.784;2023-08-30T11:39:34;15.95;;;6.15;;
9522;SDS011;63165;43.016;25.784;2023-08-30T11:42:03;17.52;;;6.38;;
9522;SDS011;63165;43.016;25.784;2023-08-30T11:44:33;17.05;;;6.32;;
9522;SDS011;63165;43.016;25.784;2023-08-30T11:47:01;12.52;;;6.18;;
9522;SDS011;63165;43.016;25.784;2023-08-30T11:49:28;12.40;;;6.20;;
9522;SDS011;63165;43.016;25.784;2023-08-30T11:51:55;18.20;;;6.43;;
9522;SDS011;63165;43.016;25.784;2023-08-30T11:54:24;15.77;;;6.18;;
9522;SDS011;63165;43.016;25.784;2023-08-30T11:56:51;17.90;;;6.22;;
9522;SDS011;63165;43.016;25.784;2023-08-30T11:59:19;14.20;;;6.15;;
9522;SDS011;63165;43.016;25.784;2023-08-30T12:01:48;13.23;;;6.00;;
9522;SDS011;63165;43.016;25.784;2023-08-30T12:04:18;14.13;;;6.95;;
9522;SDS011;63165;43.016;25.784;2023-08-30T12:06:50;13.35;;;6.35;;
9522;SDS011;63165;43.016;25.784;2023-08-30T12:09:18;17.13;;;5.82;;
9522;SDS011;63165;43.016;25.784;2023-08-30T12:11:47;22.88;;;7.07;;
9522;SDS011;63165;43.016;25.784;2023-08-30T12:14:14;12.57;;;5.80;;
9522;SDS011;63165;43.016;25.784;2023-08-30T12:16:42;14.50;;;6.20;;
9522;SDS011;63165;43.016;25.784;2023-08-30T12:19:11;18.60;;;6.38;;
9522;SDS011;63165;43.016;25.784;2023-08-30T12:21:39;11.45;;;6.30;;
9522;SDS011;63165;43.016;25.784;2023-08-30T12:24:07;17.08;;;6.60;;
9522;SDS011;63165;43.016;25.784;2023-08-30T12:26:35;17.50;;;6.40;;
9522;SDS011;63165;43.016;25.784;2023-08-30T12:29:03;15.88;;;5.95;;
9522;SDS011;63165;43.016;25.784;2023-08-30T12:31:31;11.48;;;6.10;;
9522;SDS011;63165;43.016;25.784;2023-08-30T12:33:59;17.42;;;6.57;;
9522;SDS011;63165;43.016;25.784;2023-08-30T12:36:27;14.75;;;6.22;;
9522;SDS011;63165;43.016;25.784;2023-08-30T12:38:54;15.80;;;6.78;;
9522;SDS011;63165;43.016;25.784;2023-08-30T12:41:22;12.75;;;6.03;;
9522;SDS011;63165;43.016;25.784;2023-08-30T12:43:49;13.95;;;5.45;;
9522;SDS011;63165;43.016;25.784;2023-08-30T12:46:16;25.10;;;6.13;;
9522;SDS011;63165;43.016;25.784;2023-08-30T12:48:43;16.13;;;5.93;;
9522;SDS011;63165;43.016;25.784;2023-08-30T12:51:11;15.82;;;5.68;;
9522;SDS011;63165;43.016;25.784;2023-08-30T12:53:41;18.73;;;6.30;;
9522;SDS011;63165;43.016;25.784;2023-08-30T12:56:08;15.13;;;6.07;;
9522;SDS011;63165;43.016;25.784;2023-08-30T12:58:35;13.20;;;5.88;;
9522;SDS011;63165;43.016;25.784;2023-08-30T13:01:02;12.05;;;5.97;;
9522;SDS011;63165;43.016;25.784;2023-08-30T13:03:29;13.82;;;6.28;;
9522;SDS011;63165;43.016;25.784;2023-08-30T13:05:57;14.50;;;5.72;;
9522;SDS011;63165;43.016;25.784;2023-08-30T13:08:25;15.70;;;6.00;;
9522;SDS011;63165;43.016;25.784;2023-08-30T13:10:53;22.70;;;5.95;;
9522;SDS011;63165;43.016;25.784;2023-08-30T13:13:20;18.17;;;6.30;;
9522;SDS011;63165;43.016;25.784;2023-08-30T13:15:47;12.85;;;6.05;;
9522;SDS011;63165;43.016;25.784;2023-08-30T13:18:15;15.40;;;5.50;;
9522;SDS011;63165;43.016;25.784;2023-08-30T13:20:43;14.35;;;6.15;;
9522;SDS011;63165;43.016;25.784;2023-08-30T13:23:10;14.60;;;6.63;;
9522;SDS011;63165;43.016;25.784;2023-08-30T13:25:40;12.10;;;5.80;;
9522;SDS011;63165;43.016;25.784;2023-08-30T13:28:09;15.05;;;6.32;;
9522;SDS011;63165;43.016;25.784;2023-08-30T13:30:36;14.00;;;6.15;;
9522;SDS011;63165;43.016;25.784;2023-08-30T13:33:10;18.38;;;6.00;;
9522;SDS011;63165;43.016;25.784;2023-08-30T13:35:38;14.70;;;6.15;;
9522;SDS011;63165;43.016;25.784;2023-08-30T13:38:05;21.67;;;7.25;;
9522;SDS011;63165;43.016;25.784;2023-08-30T13:40:33;16.08;;;6.15;;
9522;SDS011;63165;43.016;25.784;2023-08-30T13:43:00;16.13;;;6.85;;
9522;SDS011;63165;43.016;25.784;2023-08-30T13:45:30;45.35;;;8.27;;
9522;SDS011;63165;43.016;25.784;2023-08-30T13:47:57;16.50;;;6.38;;
9522;SDS011;63165;43.016;25.784;2023-08-30T13:50:24;15.15;;;6.40;;
9522;SDS011;63165;43.016;25.784;2023-08-30T13:52:55;14.57;;;6.25;;
9522;SDS011;63165;43.016;25.784;2023-08-30T13:55:22;18.35;;;6.82;;
9522;SDS011;63165;43.016;25.784;2023-08-30T13:57:50;13.48;;;6.35;;
9522;SDS011;63165;43.016;25.784;2023-08-30T14:00:17;19.35;;;7.05;;
9522;SDS011;63165;43.016;25.784;2023-08-30T14:02:46;23.45;;;7.57;;
9522;SDS011;63165;43.016;25.784;2023-08-30T14:05:13;26.45;;;6.95;;
9522;SDS011;63165;43.016;25.784;2023-08-30T14:07:41;25.92;;;7.53;;
9522;SDS011;63165;43.016;25.784;2023-08-30T14:10:08;21.95;;;7.03;;
9522;SDS011;63165;43.016;25.784;2023-08-30T14:12:36;25.33;;;7.30;;
9522;SDS011;63165;43.016;25.784;2023-08-30T14:15:04;26.40;;;7.50;;
9522;SDS011;63165;43.016;25.784;2023-08-30T14:17:31;18.27;;;7.68;;
9522;SDS011;63165;43.016;25.784;2023-08-30T14:20:00;22.02;;;7.63;;
9522;SDS011;63165;43.016;25.784;2023-08-30T14:22:27;27.48;;;7.28;;
9522;SDS011;63165;43.016;25.784;2023-08-30T14:24:55;31.30;;;7.65;;
9522;SDS011;63165;43.016;25.784;2023-08-30T14:27:22;20.40;;;7.50;;
9522;SDS011;63165;43.016;25.784;2023-08-30T14:29:49;20.60;;;8.07;;
9522;SDS011;63165;43.016;25.784;2023-08-30T14:32:16;18.63;;;7.07;;
9522;SDS011;63165;43.016;25.784;2023-08-30T14:34:43;18.90;;;7.15;;
9522;SDS011;63165;43.016;25.784;2023-08-30T14:37:12;25.85;;;7.60;;
9522;SDS011;63165;43.016;25.784;2023-08-30T14:39:39;21.77;;;7.03;;
9522;SDS011;63165;43.016;25.784;2023-08-30T14:42:07;22.85;;;7.05;;
9522;SDS011;63165;43.016;25.784;2023-08-30T14:44:34;17.60;;;6.85;;
9522;SDS011;63165;43.016;25.784;2023-08-30T14:47:01;17.40;;;7.00;;
9522;SDS011;63165;43.016;25.784;2023-08-30T14:49:30;18.83;;;7.35;;
9522;SDS011;63165;43.016;25.784;2023-08-30T14:51:57;27.20;;;7.43;;
9522;SDS011;63165;43.016;25.784;2023-08-30T14:54:26;19.83;;;6.82;;
9522;SDS011;63165;43.016;25.784;2023-08-30T14:56:53;18.70;;;7.20;;
9522;SDS011;63165;43.016;25.784;2023-08-30T14:59:20;20.42;;;7.03;;
9522;SDS011;63165;43.016;25.784;2023-08-30T15:01:47;21.17;;;6.75;;
9522;SDS011;63165;43.016;25.784;2023-08-30T15:04:14;14.48;;;6.70;;
9522;SDS011;63165;43.016;25.784;2023-08-30T15:06:41;25.27;;;7.13;;
9522;SDS011;63165;43.016;25.784;2023-08-30T15:09:09;15.65;;;6.28;;
9522;SDS011;63165;43.016;25.784;2023-08-30T15:11:38;17.27;;;6.85;;
9522;SDS011;63165;43.016;25.784;2023-08-30T15:14:05;21.67;;;6.97;;
9522;SDS011;63165;43.016;25.784;2023-08-30T15:16:32;19.17;;;6.88;;
9522;SDS011;63165;43.016;25.784;2023-08-30T15:18:59;18.92;;;6.90;;
9522;SDS011;63165;43.016;25.784;2023-08-30T15:21:26;18.90;;;7.05;;
9522;SDS011;63165;43.016;25.784;2023-08-30T15:23:54;20.30;;;6.68;;
9522;SDS011;63165;43.016;25.784;2023-08-30T15:26:21;16.25;;;6.47;;
9522;SDS011;63165;43.016;25.784;2023-08-30T15:28:49;18.92;;;7.10;;
9522;SDS011;63165;43.016;25.784;2023-08-30T15:31:16;16.20;;;6.70;;
9522;SDS011;63165;43.016;25.784;2023-08-30T15:33:44;24.98;;;6.93;;
9522;SDS011;63165;43.016;25.784;2023-08-30T15:36:11;24.08;;;6.93;;
9522;SDS011;63165;43.016;25.784;2023-08-30T15:38:38;25.40;;;7.10;;
9522;SDS011;63165;43.016;25.784;2023-08-30T15:41:10;19.48;;;6.45;;
9522;SDS011;63165;43.016;25.784;2023-08-30T15:43:38;18.90;;;6.85;;
9522;SDS011;63165;43.016;25.784;2023-08-30T15:46:07;19.25;;;6.63;;
9522;SDS011;63165;43.016;25.784;2023-08-30T15:48:35;24.88;;;7.03;;
9522;SDS011;63165;43.016;25.784;2023-08-30T15:51:03;20.58;;;7.03;;
9522;SDS011;63165;43.016;25.784;2023-08-30T15:53:30;21.30;;;7.80;;
9522;SDS011;63165;43.016;25.784;2023-08-30T15:55:57;19.67;;;7.55;;
9522;SDS011;63165;43.016;25.784;2023-08-30T15:58:24;16.67;;;7.00;;
9522;SDS011;63165;43.016;25.784;2023-08-30T16:00:51;19.05;;;6.90;;
9522;SDS011;63165;43.016;25.784;2023-08-30T16:03:22;25.40;;;6.97;;
9522;SDS011;63165;43.016;25.784;2023-08-30T16:05:49;15.50;;;6.55;;
9522;SDS011;63165;43.016;25.784;2023-08-30T16:08:17;18.83;;;6.82;;
9522;SDS011;63165;43.016;25.784;2023-08-30T16:10:46;24.02;;;7.03;;
9522;SDS011;63165;43.016;25.784;2023-08-30T16:13:18;23.13;;;7.10;;
9522;SDS011;63165;43.016;25.784;2023-08-30T16:15:46;21.20;;;6.43;;
9522;SDS011;63165;43.016;25.784;2023-08-30T16:18:13;17.52;;;6.90;;
9522;SDS011;63165;43.016;25.784;2023-08-30T16:20:42;15.85;;;6.10;;
9522;SDS011;63165;43.016;25.784;2023-08-30T16:23:09;16.33;;;7.00;;
9522;SDS011;63165;43.016;25.784;2023-08-30T16:25:36;21.50;;;7.65;;
9522;SDS011;63165;43.016;25.784;2023-08-30T16:28:04;17.23;;;7.13;;
9522;SDS011;63165;43.016;25.784;2023-08-30T16:30:33;14.60;;;7.10;;
9522;SDS011;63165;43.016;25.784;2023-08-30T16:33:00;16.48;;;7.18;;
9522;SDS011;63165;43.016;25.784;2023-08-30T16:35:28;22.30;;;7.47;;
9522;SDS011;63165;43.016;25.784;2023-08-30T16:37:57;19.67;;;8.05;;
9522;SDS011;63165;43.016;25.784;2023-08-30T16:40:24;21.35;;;7.97;;
9522;SDS011;63165;43.016;25.784;2023-08-30T16:42:52;20.92;;;7.43;;
9522;SDS011;63165;43.016;25.784;2023-08-30T16:45:19;25.98;;;7.65;;
9522;SDS011;63165;43.016;25.784;2023-08-30T16:47:46;24.48;;;7.30;;
9522;SDS011;63165;43.016;25.784;2023-08-30T16:50:13;29.13;;;8.52;;
9522;SDS011;63165;43.016;25.784;2023-08-30T16:52:41;22.27;;;7.45;;
9522;SDS011;63165;43.016;25.784;2023-08-30T16:55:10;22.20;;;8.00;;
9522;SDS011;63165;43.016;25.784;2023-08-30T16:57:37;24.15;;;8.35;;
9522;SDS011;63165;43.016;25.784;2023-08-30T17:00:05;20.23;;;7.45;;
9522;SDS011;63165;43.016;25.784;2023-08-30T17:02:34;22.92;;;7.80;;
9522;SDS011;63165;43.016;25.784;2023-08-30T17:05:02;26.38;;;9.02;;
9522;SDS011;63165;43.016;25.784;2023-08-30T17:07:30;23.15;;;8.88;;
9522;SDS011;63165;43.016;25.784;2023-08-30T17:09:57;21.40;;;8.48;;
9522;SDS011;63165;43.016;25.784;2023-08-30T17:12:25;17.08;;;6.78;;
9522;SDS011;63165;43.016;25.784;2023-08-30T17:14:52;22.48;;;7.65;;
9522;SDS011;63165;43.016;25.784;2023-08-30T17:17:19;18.13;;;7.75;;
9522;SDS011;63165;43.016;25.784;2023-08-30T17:19:46;27.08;;;7.75;;
9522;SDS011;63165;43.016;25.784;2023-08-30T17:22:13;23.27;;;8.05;;
9522;SDS011;63165;43.016;25.784;2023-08-30T17:24:41;23.40;;;7.93;;
9522;SDS011;63165;43.016;25.784;2023-08-30T17:27:08;21.50;;;7.53;;
9522;SDS011;63165;43.016;25.784;2023-08-30T17:29:37;21.08;;;8.30;;
9522;SDS011;63165;43.016;25.784;2023-08-30T17:32:05;27.30;;;8.00;;
9522;SDS011;63165;43.016;25.784;2023-08-30T17:34:31;22.70;;;8.38;;
9522;SDS011;63165;43.016;25.784;2023-08-30T17:36:58;17.58;;;8.07;;
9522;SDS011;63165;43.016;25.784;2023-08-30T17:39:29;24.88;;;8.05;;
9522;SDS011;63165;43.016;25.784;2023-08-30T17:41:56;20.13;;;8.27;;
9522;SDS011;63165;43.016;25.784;2023-08-30T17:44:23;22.95;;;9.10;;
9522;SDS011;63165;43.016;25.784;2023-08-30T17:46:52;22.65;;;9.25;;
9522;SDS011;63165;43.016;25.784;2023-08-30T17:49:19;27.73;;;9.32;;
9522;SDS011;63165;43.016;25.784;2023-08-30T17:51:47;32.22;;;9.57;;
9522;SDS011;63165;43.016;25.784;2023-08-30T17:54:14;34.00;;;9.07;;
9522;SDS011;63165;43.016;25.784;2023-08-30T17:56:42;27.67;;;9.45;;
9522;SDS011;63165;43.016;25.784;2023-08-30T17:59:09;27.17;;;9.32;;
9522;SDS011;63165;43.016;25.784;2023-08-30T18:01:37;22.00;;;9.13;;
9522;SDS011;63165;43.016;25.784;2023-08-30T18:04:05;30.15;;;9.88;;
9522;SDS011;63165;43.016;25.784;2023-08-30T18:06:33;30.88;;;10.15;;
9522;SDS011;63165;43.016;25.784;2023-08-30T18:09:00;24.50;;;10.00;;
9522;SDS011;63165;43.016;25.784;2023-08-30T18:11:27;25.98;;;10.48;;
9522;SDS011;63165;43.016;25.784;2023-08-30T18:13:54;34.72;;;11.65;;
9522;SDS011;63165;43.016;25.784;2023-08-30T18:16:22;29.55;;;10.95;;
9522;SDS011;63165;43.016;25.784;2023-08-30T18:18:49;34.00;;;11.60;;
9522;SDS011;63165;43.016;25.784;2023-08-30T18:21:18;34.28;;;12.73;;
9522;SDS011;63165;43.016;25.784;2023-08-30T18:26:40;38.25;;;13.23;;
9522;SDS011;63165;43.016;25.784;2023-08-30T18:29:07;41.15;;;12.73;;
9522;SDS011;63165;43.016;25.784;2023-08-30T18:31:35;26.65;;;11.35;;
9522;SDS011;63165;43.016;25.784;2023-08-30T18:34:02;33.42;;;12.93;;
9522;SDS011;63165;43.016;25.784;2023-08-30T18:36:32;41.13;;;13.73;;
9522;SDS011;63165;43.016;25.784;2023-08-30T18:38:59;43.10;;;13.68;;
9522;SDS011;63165;43.016;25.784;2023-08-30T18:41:29;43.22;;;13.27;;
9522;SDS011;63165;43.016;25.784;2023-08-30T18:43:56;32.97;;;12.93;;
9522;SDS011;63165;43.016;25.784;2023-08-30T18:46:23;49.25;;;14.50;;
9522;SDS011;63165;43.016;25.784;2023-08-30T18:48:50;48.83;;;15.07;;
9522;SDS011;63165;43.016;25.784;2023-08-30T18:51:19;51.22;;;15.18;;
9522;SDS011;63165;43.016;25.784;2023-08-30T18:53:49;43.42;;;16.35;;
9522;SDS011;63165;43.016;25.784;2023-08-30T18:56:16;45.97;;;15.32;;
9522;SDS011;63165;43.016;25.784;2023-08-30T18:58:43;44.83;;;14.48;;
9522;SDS011;63165;43.016;25.784;2023-08-30T19:01:11;36.85;;;14.35;;
9522;SDS011;63165;43.016;25.784;2023-08-30T19:03:40;37.30;;;14.10;;
9522;SDS011;63165;43.016;25.784;2023-08-30T19:06:07;36.90;;;13.23;;
9522;SDS011;63165;43.016;25.784;2023-08-30T19:08:35;39.25;;;12.77;;
9522;SDS011;63165;43.016;25.784;2023-08-30T19:11:04;31.38;;;13.25;;
9522;SDS011;63165;43.016;25.784;2023-08-30T19:13:31;42.25;;;14.45;;
9522;SDS011;63165;43.016;25.784;2023-08-30T19:15:59;38.45;;;14.82;;
9522;SDS011;63165;43.016;25.784;2023-08-30T19:18:26;37.33;;;14.27;;
9522;SDS011;63165;43.016;25.784;2023-08-30T19:20:56;35.22;;;14.85;;
9522;SDS011;63165;43.016;25.784;2023-08-30T19:23:24;35.65;;;13.43;;
9522;SDS011;63165;43.016;25.784;2023-08-30T19:25:51;36.38;;;13.77;;
9522;SDS011;63165;43.016;25.784;2023-08-30T19:28:21;45.35;;;15.27;;
9522;SDS011;63165;43.016;25.784;2023-08-30T19:30:49;31.80;;;13.43;;
9522;SDS011;63165;43.016;25.784;2023-08-30T19:33:17;45.35;;;14.43;;
9522;SDS011;63165;43.016;25.784;2023-08-30T19:35:45;36.53;;;13.55;;
9522;SDS011;63165;43.016;25.784;2023-08-30T19:38:12;34.63;;;13.10;;
9522;SDS011;63165;43.016;25.784;2023-08-30T19:40:47;35.90;;;12.68;;
9522;SDS011;63165;43.016;25.784;2023-08-30T19:43:15;42.97;;;14.93;;
9522;SDS011;63165;43.016;25.784;2023-08-30T19:45:44;39.10;;;14.57;;
9522;SDS011;63165;43.016;25.784;2023-08-30T19:48:12;31.88;;;13.75;;
9522;SDS011;63165;43.016;25.784;2023-08-30T19:50:40;42.60;;;15.20;;
9522;SDS011;63165;43.016;25.784;2023-08-30T19:53:07;38.53;;;14.00;;
9522;SDS011;63165;43.016;25.784;2023-08-30T19:55:35;38.55;;;14.90;;
9522;SDS011;63165;43.016;25.784;2023-08-30T19:58:03;37.70;;;15.32;;
9522;SDS011;63165;43.016;25.784;2023-08-30T20:00:31;37.38;;;15.25;;
9522;SDS011;63165;43.016;25.784;2023-08-30T20:03:03;36.22;;;14.10;;
9522;SDS011;63165;43.016;25.784;2023-08-30T20:05:31;47.45;;;16.77;;
9522;SDS011;63165;43.016;25.784;2023-08-30T20:08:00;46.63;;;16.45;;
9522;SDS011;63165;43.016;25.784;2023-08-30T20:10:28;45.67;;;15.63;;
9522;SDS011;63165;43.016;25.784;2023-08-30T20:12:55;49.47;;;15.23;;
9522;SDS011;63165;43.016;25.784;2023-08-30T20:15:22;42.35;;;13.88;;
9522;SDS011;63165;43.016;25.784;2023-08-30T20:17:52;39.38;;;14.10;;
9522;SDS011;63165;43.016;25.784;2023-08-30T20:20:21;36.67;;;14.43;;
9522;SDS011;63165;43.016;25.784;2023-08-30T20:22:49;38.10;;;14.93;;
9522;SDS011;63165;43.016;25.784;2023-08-30T20:25:16;36.42;;;14.32;;
9522;SDS011;63165;43.016;25.784;2023-08-30T20:27:44;42.47;;;14.93;;
9522;SDS011;63165;43.016;25.784;2023-08-30T20:30:12;37.55;;;14.75;;
9522;SDS011;63165;43.016;25.784;2023-08-30T20:32:40;42.60;;;15.73;;
9522;SDS011;63165;43.016;25.784;2023-08-30T20:35:08;41.17;;;15.88;;
9522;SDS011;63165;43.016;25.784;2023-08-30T20:37:37;41.78;;;16.00;;
9522;SDS011;63165;43.016;25.784;2023-08-30T20:40:05;40.85;;;15.70;;
9522;SDS011;63165;43.016;25.784;2023-08-30T20:42:33;41.92;;;16.13;;
9522;SDS011;63165;43.016;25.784;2023-08-30T20:45:02;44.42;;;16.83;;
9522;SDS011;63165;43.016;25.784;2023-08-30T20:48:00;39.88;;;14.68;;
9522;SDS011;63165;43.016;25.784;2023-08-30T20:50:58;35.72;;;14.18;;
9522;SDS011;63165;43.016;25.784;2023-08-30T21:03:39;30.53;;;14.50;;
9522;SDS011;63165;43.016;25.784;2023-08-30T21:06:26;36.92;;;15.40;;
9522;SDS011;63165;43.016;25.784;2023-08-30T21:09:23;39.60;;;15.90;;
9522;SDS011;63165;43.016;25.784;2023-08-30T21:12:55;39.22;;;14.57;;
9522;SDS011;63165;43.016;25.784;2023-08-30T21:15:26;35.63;;;15.07;;
9522;SDS011;63165;43.016;25.784;2023-08-30T21:18:06;40.30;;;15.73;;
9522;SDS011;63165;43.016;25.784;2023-08-30T21:20:38;37.75;;;15.52;;
9522;SDS011;63165;43.016;25.784;2023-08-30T21:23:11;46.72;;;13.93;;
9522;SDS011;63165;43.016;25.784;2023-08-30T21:25:45;31.08;;;14.25;;
9522;SDS011;63165;43.016;25.784;2023-08-30T21:28:19;35.80;;;14.68;;
9522;SDS011;63165;43.016;25.784;2023-08-30T21:31:01;36.80;;;15.10;;
9522;SDS011;63165;43.016;25.784;2023-08-30T21:33:37;40.63;;;15.05;;
9522;SDS011;63165;43.016;25.784;2023-08-30T21:39:26;43.78;;;14.32;;
9522;SDS011;63165;43.016;25.784;2023-08-30T21:42:10;33.97;;;14.20;;
9522;SDS011;63165;43.016;25.784;2023-08-30T21:45:01;34.45;;;13.27;;
9522;SDS011;63165;43.016;25.784;2023-08-30T21:47:46;40.08;;;15.48;;
9522;SDS011;63165;43.016;25.784;2023-08-30T21:56:53;37.30;;;13.50;;
9522;SDS011;63165;43.016;25.784;2023-08-30T21:59:26;37.58;;;14.45;;
9522;SDS011;63165;43.016;25.784;2023-08-30T22:02:04;31.55;;;14.13;;
9522;SDS011;63165;43.016;25.784;2023-08-30T22:05:14;35.70;;;14.02;;
9522;SDS011;63165;43.016;25.784;2023-08-30T22:07:43;33.42;;;13.35;;
9522;SDS011;63165;43.016;25.784;2023-08-30T22:10:11;39.35;;;14.95;;
9522;SDS011;63165;43.016;25.784;2023-08-30T22:12:44;33.78;;;13.45;;
9522;SDS011;63165;43.016;25.784;2023-08-30T22:15:14;37.70;;;14.45;;
9522;SDS011;63165;43.016;25.784;2023-08-30T22:17:43;36.15;;;14.40;;
9522;SDS011;63165;43.016;25.784;2023-08-30T22:20:12;33.75;;;13.85;;
9522;SDS011;63165;43.016;25.784;2023-08-30T22:22:41;36.33;;;13.70;;
9522;SDS011;63165;43.016;25.784;2023-08-30T22:25:10;39.47;;;14.30;;
9522;SDS011;63165;43.016;25.784;2023-08-30T22:27:39;35.60;;;14.02;;
9522;SDS011;63165;43.016;25.784;2023-08-30T22:30:12;38.40;;;14.27;;
9522;SDS011;63165;43.016;25.784;2023-08-30T22:32:41;36.28;;;14.32;;
9522;SDS011;63165;43.016;25.784;2023-08-30T22:35:10;39.63;;;15.10;;
9522;SDS011;63165;43.016;25.784;2023-08-30T22:37:38;33.03;;;13.35;;
9522;SDS011;63165;43.016;25.784;2023-08-30T22:40:05;34.42;;;13.95;;
9522;SDS011;63165;43.016;25.784;2023-08-30T22:42:34;41.05;;;14.27;;
9522;SDS011;63165;43.016;25.784;2023-08-30T22:45:02;35.80;;;14.18;;
9522;SDS011;63165;43.016;25.784;2023-08-30T22:47:32;29.92;;;12.95;;
9522;SDS011;63165;43.016;25.784;2023-08-30T22:50:00;34.63;;;13.15;;
9522;SDS011;63165;43.016;25.784;2023-08-30T22:52:27;30.70;;;12.85;;
9522;SDS011;63165;43.016;25.784;2023-08-30T22:54:55;34.13;;;13.00;;
9522;SDS011;63165;43.016;25.784;2023-08-30T22:57:22;35.30;;;13.43;;
9522;SDS011;63165;43.016;25.784;2023-08-30T22:59:50;32.33;;;12.95;;
9522;SDS011;63165;43.016;25.784;2023-08-30T23:02:18;34.33;;;13.68;;
9522;SDS011;63165;43.016;25.784;2023-08-30T23:04:50;38.53;;;14.48;;
9522;SDS011;63165;43.016;25.784;2023-08-30T23:07:17;38.88;;;14.13;;